Time;durP1;ratioP1;P1;durP2;ratioP2;P2;SDS_P1;SDS_P2;PMS_P1;PMS_P2;Temp;Humidity;BMP_temperature;BMP_pressure;BME280_temperature;BME280_humidity;BME280_pressure;Samples;Min_cycle;Max_cycle;Signal;HPM_P1;HPM_P2
2022/01/30 00:01:24;;;;;;;29.38;3.63;;;;;;;8.79;52.21;100496.34;4917505;28;96758;-79
2022/01/30 00:03:50;;;;;;;21.30;3.63;;;;;;;8.75;52.23;100475.44;4918165;28;97201;-76
2022/01/30 00:06:16;;;;;;;28.50;4.03;;;;;;;8.90;52.26;100474.09;4915826;28;100974;-76
2022/01/30 00:08:44;;;;;;;24.70;4.00;;;;;;;8.81;51.84;100467.34;4917036;28;98723;-77
2022/01/30 00:11:14;;;;;;;30.13;4.18;;;;;;;9.05;52.13;100471.81;4914655;28;98325;-77
2022/01/30 00:13:42;;;;;;;22.88;3.30;;;;;;;9.18;51.28;100454.66;4910861;28;96717;-76
2022/01/30 00:16:10;;;;;;;31.73;4.78;;;;;;;9.29;50.55;100462.19;4913925;28;97795;-78
2022/01/30 00:18:47;;;;;;;28.10;4.07;;;;;;;8.92;51.07;100472.28;4916912;28;98951;-78
2022/01/30 00:21:22;;;;;;;29.02;4.00;;;;;;;9.11;50.96;100463.69;4913746;28;97371;-78
2022/01/30 00:23:55;;;;;;;21.63;3.38;;;;;;;9.00;50.99;100460.53;4912818;28;96807;-79
2022/01/30 00:26:27;;;;;;;39.40;4.82;;;;;;;8.45;52.71;100476.41;4916771;28;97898;-78
2022/01/30 00:28:55;;;;;;;32.00;4.15;;;;;;;8.92;51.75;100472.28;4915942;28;98827;-78
2022/01/30 00:31:23;;;;;;;27.55;3.75;;;;;;;8.45;52.01;100481.69;4915737;28;97642;-77
2022/01/30 00:33:50;;;;;;;33.80;4.88;;;;;;;8.60;51.50;100457.50;4916621;28;97404;-77
2022/01/30 00:36:16;;;;;;;35.30;3.95;;;;;;;8.74;50.62;100468.44;4916085;28;99065;-78
2022/01/30 00:38:43;;;;;;;33.75;3.65;;;;;;;8.70;51.41;100456.28;4916607;28;99855;-76
2022/01/30 00:41:09;;;;;;;30.88;3.58;;;;;;;9.25;49.66;100475.53;4918681;28;96791;-77
2022/01/30 00:43:36;;;;;;;28.02;3.63;;;;;;;9.09;50.07;100444.44;4921072;28;96812;-77
2022/01/30 00:46:03;;;;;;;24.52;3.25;;;;;;;8.69;50.91;100460.69;4916183;28;99050;-78
2022/01/30 00:48:30;;;;;;;25.80;4.18;;;;;;;9.08;50.14;100457.66;4917000;28;99346;-77
2022/01/30 00:50:56;;;;;;;24.05;3.03;;;;;;;8.27;53.26;100454.97;4918292;28;96748;-77
2022/01/30 00:53:22;;;;;;;18.70;3.35;;;;;;;8.23;53.87;100466.50;4917363;28;96782;-76
2022/01/30 00:55:49;;;;;;;25.85;3.47;;;;;;;8.21;53.81;100447.25;4914776;28;98064;-77
2022/01/30 00:58:15;;;;;;;25.20;3.17;;;;;;;8.42;53.82;100439.63;4915617;28;98051;-78
2022/01/30 01:00:42;;;;;;;27.25;4.32;;;;;;;8.08;54.03;100438.00;4915588;28;96800;-77
2022/01/30 01:03:09;;;;;;;26.63;4.05;;;;;;;8.23;53.30;100437.53;4915906;28;96920;-78
2022/01/30 01:05:37;;;;;;;34.00;3.03;;;;;;;8.54;52.38;100439.25;4914787;28;99199;-76
2022/01/30 01:08:12;;;;;;;25.30;3.75;;;;;;;8.68;52.32;100402.78;4911039;28;99234;-78
2022/01/30 01:10:43;;;;;;;26.88;4.43;;;;;;;8.84;51.49;100414.56;4914622;28;96768;-78
2022/01/30 01:13:22;;;;;;;27.52;3.40;;;;;;;8.73;51.35;100395.59;4916276;28;97281;-77
2022/01/30 01:44:50;;;;;;;24.10;3.88;;;;;;;8.59;49.76;100430.31;5909132;23;99787;-80
2022/01/30 01:47:20;;;;;;;21.80;3.95;;;;;;;8.25;50.38;100408.56;4929675;28;102384;-79
2022/01/30 01:49:49;;;;;;;28.60;4.10;;;;;;;8.82;49.22;100421.63;4931082;28;99230;-78
2022/01/30 01:52:23;;;;;;;20.30;3.63;;;;;;;8.94;49.26;100428.25;4930410;28;97652;-79
2022/01/30 01:54:52;;;;;;;26.80;3.58;;;;;;;8.48;49.77;100429.78;4924708;28;96908;-80
2022/01/30 01:57:19;;;;;;;27.88;3.58;;;;;;;9.11;48.79;100413.63;4918325;28;101940;-80
2022/01/30 01:59:47;;;;;;;24.20;3.55;;;;;;;9.23;48.11;100433.41;4912525;28;100417;-79
2022/01/30 02:02:15;;;;;;;28.92;3.72;;;;;;;9.00;49.19;100401.69;4913985;28;96714;-80
2022/01/30 02:04:42;;;;;;;24.45;3.55;;;;;;;8.30;50.97;100409.25;4910039;28;96886;-79
2022/01/30 02:07:20;;;;;;;30.58;3.95;;;;;;;8.47;50.81;100396.44;4912726;28;101067;-79
2022/01/30 02:09:47;;;;;;;22.20;3.20;;;;;;;8.51;50.88;100400.72;4912883;28;98843;-80
2022/01/30 02:12:18;;;;;;;26.50;3.78;;;;;;;8.72;50.58;100404.44;4911548;28;97088;-79
2022/01/30 02:14:52;;;;;;;27.95;4.63;;;;;;;8.62;50.16;100431.97;4912207;28;97802;-79
2022/01/30 02:25:39;;;;;;;22.42;3.08;;;;;;;8.54;50.27;100419.03;4931071;28;95874;-80
2022/01/30 02:28:11;;;;;;;26.77;3.42;;;;;;;8.70;49.96;100435.22;4928870;28;98631;-80
2022/01/30 02:30:42;;;;;;;24.63;4.10;;;;;;;8.66;51.08;100425.72;4920298;28;97904;-80
2022/01/30 02:33:08;;;;;;;24.40;3.65;;;;;;;8.36;51.25;100398.56;4911634;28;97095;-80
2022/01/30 02:35:35;;;;;;;40.88;4.60;;;;;;;8.44;51.33;100422.03;4915070;28;96910;-80
2022/01/30 02:38:03;;;;;;;29.30;4.22;;;;;;;8.62;50.78;100424.06;4914875;28;101539;-79
2022/01/30 02:40:36;;;;;;;22.85;4.38;;;;;;;8.58;51.04;100407.50;4915599;28;98083;-80
2022/01/30 02:43:03;;;;;;;21.77;3.60;;;;;;;8.66;50.18;100413.38;4909644;28;97044;-81
2022/01/30 02:45:33;;;;;;;39.78;6.10;;;;;;;8.50;50.51;100395.50;4912829;28;96840;-80
2022/01/30 02:48:13;;;;;;;38.03;3.92;;;;;;;8.65;50.17;100422.22;4908285;28;98886;-80
2022/01/30 02:50:52;;;;;;;30.30;3.65;;;;;;;8.72;50.23;100420.22;4906659;28;97778;-81
2022/01/30 02:53:29;;;;;;;30.75;4.53;;;;;;;8.37;51.00;100427.50;4912672;28;96930;-79
2022/01/30 02:55:55;;;;;;;23.90;4.70;;;;;;;8.38;51.53;100408.16;4914273;28;97345;-81
2022/01/30 02:58:22;;;;;;;26.05;3.42;;;;;;;8.89;50.00;100404.72;4911150;28;100482;-80
2022/01/30 03:00:48;;;;;;;25.90;4.13;;;;;;;8.48;50.95;100402.56;4909812;28;100918;-79
2022/01/30 03:03:15;;;;;;;34.10;4.30;;;;;;;8.57;50.73;100407.56;4912283;28;96761;-80
2022/01/30 03:05:41;;;;;;;23.75;3.63;;;;;;;8.52;50.67;100420.03;4912347;28;97750;-80
2022/01/30 03:08:08;;;;;;;28.38;3.70;;;;;;;8.16;51.91;100399.16;4912749;28;100557;-81
2022/01/30 03:10:36;;;;;;;28.50;4.47;;;;;;;8.45;50.98;100402.69;4910707;28;99057;-81
2022/01/30 03:13:02;;;;;;;29.80;4.18;;;;;;;8.51;51.35;100429.69;4911230;28;96938;-82
2022/01/30 03:15:29;;;;;;;27.73;4.07;;;;;;;8.31;51.71;100430.31;4912622;28;96822;-81
2022/01/30 03:17:55;;;;;;;27.48;2.97;;;;;;;8.06;52.98;100455.63;4909533;28;100721;-80
2022/01/30 03:20:22;;;;;;;27.73;3.45;;;;;;;7.89;53.47;100457.88;4914295;28;98166;-80
2022/01/30 03:22:49;;;;;;;25.45;3.63;;;;;;;8.02;53.77;100435.56;4914495;28;96951;-80
2022/01/30 03:25:15;;;;;;;29.10;4.05;;;;;;;8.17;53.93;100448.25;4915087;28;96829;-79
2022/01/30 03:27:44;;;;;;;27.33;3.67;;;;;;;8.06;54.27;100437.22;4914029;28;99516;-81
2022/01/30 03:30:18;;;;;;;31.75;4.55;;;;;;;7.98;54.85;100421.66;4913500;28;102249;-81
2022/01/30 03:32:45;;;;;;;25.20;3.90;;;;;;;7.94;53.57;100421.78;4914462;28;96786;-81
2022/01/30 03:35:11;;;;;;;26.23;3.97;;;;;;;7.88;54.16;100416.69;4912959;28;97789;-80
2022/01/30 03:37:38;;;;;;;30.10;3.28;;;;;;;8.19;52.47;100408.75;4911854;28;98075;-80
2022/01/30 03:40:06;;;;;;;16.15;3.17;;;;;;;7.99;51.52;100422.50;4907875;28;101218;-81
2022/01/30 03:42:32;;;;;;;33.95;4.38;;;;;;;8.49;50.79;100409.56;4916564;28;96717;-79
2022/01/30 03:45:00;;;;;;;28.88;3.75;;;;;;;8.14;52.11;100414.13;4910649;28;96820;-80
2022/01/30 03:47:27;;;;;;;35.13;4.13;;;;;;;8.15;51.24;100421.13;4916182;28;101026;-80
2022/01/30 03:49:54;;;;;;;22.15;4.30;;;;;;;7.94;51.90;100401.56;4913759;28;99176;-80
2022/01/30 03:52:20;;;;;;;32.38;4.28;;;;;;;8.28;51.50;100421.59;4919583;28;97549;-80
2022/01/30 03:54:47;;;;;;;26.50;4.10;;;;;;;7.76;53.14;100440.72;4914169;28;96902;-80
2022/01/30 03:57:13;;;;;;;28.38;4.20;;;;;;;7.94;52.75;100379.69;4923404;28;98972;-80
2022/01/30 03:59:40;;;;;;;32.03;3.60;;;;;;;8.03;52.98;100416.25;4917064;28;98038;-79
2022/01/30 04:02:09;;;;;;;18.65;3.47;;;;;;;8.07;54.30;100441.56;4913991;28;96727;-79
2022/01/30 04:04:35;;;;;;;30.63;4.22;;;;;;;7.59;57.71;100439.44;4913452;28;96753;-79
2022/01/30 04:07:02;;;;;;;29.35;4.65;;;;;;;7.33;58.82;100435.81;4914289;28;98892;-80
2022/01/30 04:09:29;;;;;;;29.23;4.63;;;;;;;7.38;59.45;100440.03;4915729;28;99081;-80
2022/01/30 04:11:56;;;;;;;30.58;4.75;;;;;;;7.90;58.37;100452.56;4917573;28;96728;-81
2022/01/30 04:14:23;;;;;;;31.63;4.70;;;;;;;7.91;58.75;100458.69;4912318;28;96954;-81
2022/01/30 04:16:51;;;;;;;31.85;4.05;;;;;;;8.08;58.40;100437.13;4914422;28;98932;-81
2022/01/30 04:19:19;;;;;;;26.70;3.67;;;;;;;7.84;58.50;100441.38;4911510;28;98957;-80
2022/01/30 04:21:46;;;;;;;23.50;3.20;;;;;;;7.46;60.36;100447.72;4915461;28;96899;-80
2022/01/30 04:24:12;;;;;;;25.98;2.95;;;;;;;7.74;59.28;100439.94;4915214;28;97226;-80
2022/01/30 04:26:39;;;;;;;22.50;3.28;;;;;;;8.22;58.38;100456.00;4916688;28;99376;-81
2022/01/30 04:29:07;;;;;;;23.30;3.30;;;;;;;7.99;58.24;100452.31;4916150;28;98144;-81
2022/01/30 04:31:34;;;;;;;26.50;3.53;;;;;;;7.98;58.64;100444.47;4915824;28;96742;-81
2022/01/30 04:34:01;;;;;;;22.20;3.35;;;;;;;7.96;57.76;100441.00;4916162;28;96808;-80
2022/01/30 04:36:36;;;;;;;23.33;3.63;;;;;;;8.16;56.80;100443.03;4914142;28;98956;-81
2022/01/30 04:39:12;;;;;;;31.30;4.20;;;;;;;7.79;56.74;100419.59;4911988;28;98821;-82
2022/01/30 04:41:59;;;;;;;28.63;3.55;;;;;;;7.87;56.81;100415.84;4914872;28;96773;-81
2022/01/30 04:53:04;;;;;;;29.13;4.63;;;;;;;8.08;54.84;100403.78;4909867;28;96963;-81
2022/01/30 04:58:18;;;;;;;19.13;2.50;;;;;;;7.60;55.36;100422.78;4879115;28;98041;-80
2022/01/30 05:00:59;;;;;;;21.35;3.63;;;;;;;7.84;55.14;100436.97;4913771;28;99459;-80
2022/01/30 05:03:39;;;;;;;26.42;3.72;;;;;;;8.22;54.46;100442.84;4911188;28;96788;-79
2022/01/30 05:06:09;;;;;;;23.80;3.10;;;;;;;8.11;55.23;100456.34;4913120;28;97023;-79
2022/01/30 05:08:39;;;;;;;24.98;3.10;;;;;;;8.18;54.89;100452.63;4914825;28;99357;-81
2022/01/30 05:11:07;;;;;;;22.65;3.08;;;;;;;8.27;55.10;100477.81;4916106;28;102098;-81
2022/01/30 05:13:38;;;;;;;22.63;2.97;;;;;;;8.04;55.36;100480.25;4919060;28;96925;-82
2022/01/30 05:16:05;;;;;;;17.98;3.22;;;;;;;7.59;56.43;100489.41;4918745;28;97777;-81
2022/01/30 05:18:33;;;;;;;25.60;4.47;;;;;;;7.66;56.40;100497.13;4930845;28;97806;-81
2022/01/30 05:21:00;;;;;;;21.50;3.53;;;;;;;7.83;55.42;100474.69;4925872;28;97691;-80
2022/01/30 05:23:27;;;;;;;23.35;3.20;;;;;;;7.61;55.82;100476.22;4917024;28;97017;-80
2022/01/30 05:25:55;;;;;;;28.58;4.15;;;;;;;7.48;55.47;100472.22;4919116;28;96806;-80
2022/01/30 05:28:24;;;;;;;28.20;3.83;;;;;;;7.80;53.92;100484.47;4913361;28;97880;-81
2022/01/30 05:30:52;;;;;;;28.90;3.83;;;;;;;7.58;53.91;100492.94;4916672;28;99182;-81
2022/01/30 05:33:18;;;;;;;21.00;2.85;;;;;;;7.91;53.09;100477.97;4923507;28;96810;-80
2022/01/30 05:35:46;;;;;;;27.50;4.35;;;;;;;8.46;51.23;100494.81;4917623;28;96903;-80
2022/01/30 05:38:13;;;;;;;19.45;2.80;;;;;;;7.78;52.59;100509.94;4915388;28;97912;-79
2022/01/30 05:40:40;;;;;;;26.40;4.00;;;;;;;8.11;51.88;100508.13;4916933;28;98928;-80
2022/01/30 05:43:09;;;;;;;28.10;3.50;;;;;;;7.95;51.73;100520.84;4910654;28;98686;-80
2022/01/30 05:45:39;;;;;;;24.88;3.40;;;;;;;8.32;51.43;100529.44;4913024;28;97918;-81
2022/01/30 05:48:11;;;;;;;21.80;3.63;;;;;;;8.47;51.09;100520.22;4911990;28;99085;-80
2022/01/30 05:50:38;;;;;;;31.52;3.95;;;;;;;7.96;52.45;100525.19;4919954;28;97513;-81
2022/01/30 05:53:07;;;;;;;27.30;3.40;;;;;;;8.04;53.40;100527.63;4916474;28;96726;-81
2022/01/30 05:55:36;;;;;;;28.83;4.05;;;;;;;7.31;54.89;100488.41;4918688;28;97032;-81
2022/01/30 05:58:03;;;;;;;23.50;4.03;;;;;;;7.64;53.96;100497.16;4911134;28;97857;-80
2022/01/30 06:00:31;;;;;;;22.20;3.53;;;;;;;7.89;53.24;100486.81;4915377;28;98069;-81
2022/01/30 06:02:58;;;;;;;24.00;4.15;;;;;;;7.94;53.18;100496.28;4912651;28;96862;-80
2022/01/30 06:05:25;;;;;;;17.73;3.78;;;;;;;7.67;53.10;100475.19;4913206;28;97615;-80
2022/01/30 06:07:54;;;;;;;21.42;3.33;;;;;;;7.92;53.25;100449.91;4912758;28;101081;-80
2022/01/30 06:10:22;;;;;;;24.52;4.43;;;;;;;7.76;52.74;100474.91;4914615;28;100694;-81
2022/01/30 06:12:49;;;;;;;29.52;4.68;;;;;;;7.69;52.74;100473.34;4911672;28;96691;-80
2022/01/30 06:15:16;;;;;;;26.13;5.07;;;;;;;8.32;51.19;100482.06;4910715;28;96923;-80
2022/01/30 06:17:45;;;;;;;31.70;3.72;;;;;;;8.38;51.36;100500.31;4913333;28;98898;-80
2022/01/30 06:20:13;;;;;;;39.95;4.55;;;;;;;8.20;51.26;100489.44;4916248;28;98836;-81
2022/01/30 06:22:41;;;;;;;33.85;5.00;;;;;;;7.82;51.99;100474.75;4915433;28;96716;-80
2022/01/30 06:25:11;;;;;;;30.30;4.40;;;;;;;7.44;52.54;100466.16;4914319;28;96994;-80
2022/01/30 06:27:38;;;;;;;28.42;4.15;;;;;;;7.98;51.32;100490.06;4912854;28;99117;-80
2022/01/30 06:30:06;;;;;;;27.13;3.70;;;;;;;8.06;51.21;100510.91;4914546;28;100679;-79
2022/01/30 06:32:32;;;;;;;34.35;5.32;;;;;;;8.04;51.83;100501.31;4914406;28;96809;-79
2022/01/30 06:35:00;;;;;;;25.95;3.88;;;;;;;7.58;52.51;100503.47;4911655;28;96853;-79
2022/01/30 06:37:27;;;;;;;25.85;3.97;;;;;;;7.67;52.40;100486.56;4912884;28;100134;-78
2022/01/30 06:39:53;;;;;;;26.70;4.28;;;;;;;7.53;52.70;100507.97;4913091;28;99142;-81
2022/01/30 06:42:20;;;;;;;25.98;3.88;;;;;;;7.35;52.93;100487.41;4919292;28;96638;-80
2022/01/30 06:44:47;;;;;;;59.17;5.18;;;;;;;7.29;52.62;100484.94;4929219;28;97028;-78
2022/01/30 06:47:14;;;;;;;24.75;3.63;;;;;;;7.57;51.88;100490.34;4930004;28;96715;-79
2022/01/30 06:49:40;;;;;;;26.65;3.75;;;;;;;7.78;51.56;100473.13;4933020;28;98191;-79
2022/01/30 06:52:09;;;;;;;24.05;4.40;;;;;;;7.58;51.39;100465.78;4933115;28;96630;-78
2022/01/30 06:54:38;;;;;;;20.33;4.32;;;;;;;7.52;50.90;100455.44;4947006;28;96652;-81
2022/01/30 06:57:05;;;;;;;30.10;3.58;;;;;;;7.98;50.29;100507.63;4936318;28;98040;-81
2022/01/30 06:59:32;;;;;;;27.70;4.13;;;;;;;7.70;50.28;100490.88;4932584;28;97702;-78
2022/01/30 07:01:58;;;;;;;33.25;3.97;;;;;;;7.97;48.98;100505.88;4930544;28;96941;-78
2022/01/30 07:04:25;;;;;;;24.05;3.30;;;;;;;7.88;49.07;100512.25;4929188;28;96759;-79
2022/01/30 07:06:52;;;;;;;29.20;4.05;;;;;;;7.66;49.86;100499.75;4927193;28;98416;-80
2022/01/30 07:09:19;;;;;;;25.85;3.28;;;;;;;7.64;49.76;100514.72;4926656;28;97509;-80
2022/01/30 07:11:49;;;;;;;26.10;3.53;;;;;;;7.99;48.83;100511.97;4923148;28;96894;-79
2022/01/30 07:14:15;;;;;;;26.05;3.70;;;;;;;8.06;48.97;100481.94;4927438;28;96730;-80
2022/01/30 07:16:42;;;;;;;30.92;4.78;;;;;;;7.68;49.63;100540.88;4922878;28;99306;-79
2022/01/30 07:19:08;;;;;;;30.60;4.13;;;;;;;8.08;49.26;100529.25;4925631;28;98784;-79
2022/01/30 07:21:35;;;;;;;32.47;4.95;;;;;;;8.25;48.21;100554.19;4921670;28;96705;-78
2022/01/30 07:24:01;;;;;;;29.13;4.20;;;;;;;7.98;48.63;100552.34;4920234;28;97096;-79
2022/01/30 07:26:31;;;;;;;27.33;4.20;;;;;;;8.12;48.65;100565.97;4915241;28;97684;-79
2022/01/30 07:28:58;;;;;;;26.02;3.50;;;;;;;8.05;48.90;100569.69;4916819;28;99740;-79
2022/01/30 07:31:24;;;;;;;25.25;3.53;;;;;;;8.49;47.73;100554.41;4919699;28;96725;-79
2022/01/30 07:33:51;;;;;;;41.28;4.57;;;;;;;8.49;47.76;100575.47;4911058;28;97206;-79
2022/01/30 07:36:18;;;;;;;31.40;4.45;;;;;;;8.27;48.24;100583.94;4915283;28;101316;-80
2022/01/30 07:38:44;;;;;;;20.85;3.90;;;;;;;8.34;47.88;100611.88;4915309;28;101093;-80
2022/01/30 07:41:11;;;;;;;27.85;4.22;;;;;;;8.18;48.09;100601.78;4916333;28;96732;-80
2022/01/30 07:43:41;;;;;;;31.33;3.80;;;;;;;8.45;47.50;100627.38;4915600;28;98811;-81
2022/01/30 08:02:00;;;;;;;;;;;;;;;;;;;;;
2022/01/30 08:04:53;;;;;;;28.02;4.35;;;;;;;8.42;47.12;100666.06;4915592;28;119167;-81
2022/01/30 08:07:20;;;;;;;22.63;3.85;;;;;;;9.06;46.26;100684.38;4858397;28;98953;-80
2022/01/30 08:10:21;;;;;;;33.67;4.30;;;;;;;8.96;46.34;100688.22;4918955;28;98967;-81
2022/01/30 08:13:03;;;;;;;34.22;3.85;;;;;;;8.79;46.46;100696.59;4805747;29;97020;-80
2022/01/30 08:16:23;;;;;;;26.50;4.32;;;;;;;8.94;46.23;100697.06;4882833;28;98312;-82
2022/01/30 08:34:49;;;;;;;31.63;3.88;;;;;;;8.70;46.10;100738.16;4917282;28;97171;-79
2022/01/30 09:41:45;;;;;;;36.35;4.47;;;;;;;9.35;44.12;100830.31;5444031;23;99596;-80
2022/01/30 09:44:12;;;;;;;28.85;4.15;;;;;;;9.48;43.90;100853.63;4931393;28;97410;-81
2022/01/30 09:46:42;;;;;;;36.65;6.10;;;;;;;9.41;43.93;100899.56;4916973;28;100290;-81
2022/01/30 09:49:09;;;;;;;34.88;4.20;;;;;;;9.34;43.99;100881.31;4917074;28;99000;-80
2022/01/30 09:51:38;;;;;;;33.88;4.55;;;;;;;8.97;45.06;100865.66;4912331;28;97636;-81
2022/01/30 09:54:08;;;;;;;34.88;4.28;;;;;;;8.89;44.23;100880.78;4915324;28;96728;-79
2022/01/30 09:56:58;;;;;;;33.72;4.80;;;;;;;8.90;44.47;100886.03;4911718;28;101843;-81
2022/01/30 09:59:31;;;;;;;38.17;5.18;;;;;;;9.64;43.20;100893.63;4914946;28;97815;-80
2022/01/30 10:01:58;;;;;;;27.52;4.35;;;;;;;9.52;43.19;100905.38;4907332;28;96826;-79
2022/01/30 10:04:24;;;;;;;31.20;4.35;;;;;;;9.59;42.96;100909.56;4915584;28;97310;-79
2022/01/30 10:07:00;;;;;;;29.52;4.63;;;;;;;9.76;42.99;100918.78;4914118;28;99341;-79
2022/01/30 10:09:34;;;;;;;27.95;4.78;;;;;;;9.49;43.57;100928.38;4913620;28;99694;-81
2022/01/30 10:12:16;;;;;;;37.63;5.03;;;;;;;9.41;43.53;100919.78;4905599;28;97301;-77
2022/01/30 10:15:00;;;;;;;37.00;4.80;;;;;;;9.68;43.10;100926.06;4909120;28;96947;-78
2022/01/30 10:17:36;;;;;;;33.03;4.72;;;;;;;9.72;43.21;100927.69;4921590;28;98130;-79
2022/01/30 10:20:07;;;;;;;26.45;4.00;;;;;;;9.65;43.93;100942.84;4912585;28;99752;-78
2022/01/30 10:22:36;;;;;;;35.17;4.97;;;;;;;9.39;44.15;100933.00;4906355;28;96781;-78
2022/01/30 10:25:03;;;;;;;32.40;4.90;;;;;;;9.74;43.24;100939.94;4913601;28;96860;-77
2022/01/30 10:27:33;;;;;;;36.35;4.45;;;;;;;9.13;44.57;100946.91;4910692;28;97864;-77
2022/01/30 10:30:01;;;;;;;37.33;5.07;;;;;;;9.30;44.35;100951.75;4919999;28;96996;-78
2022/01/30 10:32:29;;;;;;;27.60;4.13;;;;;;;9.56;43.56;100953.66;4929801;28;96826;-79
2022/01/30 10:35:01;;;;;;;32.20;5.28;;;;;;;8.74;45.32;100959.31;4929646;28;96810;-76
2022/01/30 10:37:28;;;;;;;31.75;5.07;;;;;;;9.44;44.26;100973.34;4930923;28;99346;-82
2022/01/30 10:39:58;;;;;;;27.55;4.05;;;;;;;9.53;43.41;100969.56;4924291;28;99307;-81
2022/01/30 10:42:41;;;;;;;31.67;4.72;;;;;;;9.96;42.51;100972.72;4929794;28;96854;-80
2022/01/30 10:45:11;;;;;;;30.10;4.65;;;;;;;9.73;43.09;100974.28;4923532;28;96757;-80
2022/01/30 10:47:38;;;;;;;36.38;5.13;;;;;;;9.02;44.64;100991.13;4927957;28;98881;-80
2022/01/30 10:50:14;;;;;;;38.42;6.25;;;;;;;9.54;43.39;100985.34;4922991;28;97628;-81
2022/01/30 10:52:53;;;;;;;34.42;5.78;;;;;;;10.16;42.14;100995.91;4919794;28;98905;-82
2022/01/30 10:55:32;;;;;;;32.20;5.30;;;;;;;10.11;42.12;101011.00;4916078;28;96970;-81
2022/01/30 10:58:01;;;;;;;36.13;6.30;;;;;;;9.36;42.83;100995.53;4914433;28;98900;-81
2022/01/30 11:00:38;;;;;;;41.00;5.55;;;;;;;9.98;42.10;101001.69;4919967;28;98857;-79
2022/01/30 11:03:04;;;;;;;35.42;4.78;;;;;;;9.87;42.54;101004.66;4916901;28;97161;-78
2022/01/30 11:05:33;;;;;;;41.20;5.85;;;;;;;9.73;42.26;101005.94;4917349;28;96944;-79
2022/01/30 11:07:59;;;;;;;43.90;5.60;;;;;;;9.86;41.91;101018.75;4915646;28;97878;-79
2022/01/30 11:10:27;;;;;;;33.72;5.55;;;;;;;10.23;41.49;101033.59;4922716;28;98124;-81
2022/01/30 11:13:08;;;;;;;39.72;5.93;;;;;;;10.20;41.04;101033.66;4924094;28;97545;-80
2022/01/30 11:15:43;;;;;;;42.60;6.18;;;;;;;9.84;42.05;101038.22;4921172;28;97605;-80
2022/01/30 11:18:12;;;;;;;42.88;5.95;;;;;;;9.72;42.48;101047.31;4916954;28;98108;-78
2022/01/30 11:20:40;;;;;;;30.77;5.18;;;;;;;9.43;42.95;101041.94;4921272;28;98973;-81
2022/01/30 11:23:09;;;;;;;39.28;6.00;;;;;;;10.12;41.90;101047.06;4919356;28;97212;-80
2022/01/30 11:25:38;;;;;;;34.95;5.68;;;;;;;9.83;42.44;101061.09;4921094;28;97785;-78
2022/01/30 11:28:10;;;;;;;41.00;5.65;;;;;;;9.96;41.93;101045.78;4917530;28;101168;-82
2022/01/30 11:30:38;;;;;;;34.17;5.45;;;;;;;9.96;41.69;101046.66;4919141;28;97922;-79
2022/01/30 11:33:06;;;;;;;41.97;5.90;;;;;;;9.78;42.15;101064.78;4915679;28;97900;-79
2022/01/30 11:35:32;;;;;;;42.72;5.55;;;;;;;10.14;41.57;101070.78;4916022;28;97687;-79
2022/01/30 11:37:59;;;;;;;39.30;6.45;;;;;;;9.95;41.96;101081.00;4916448;28;99495;-79
2022/01/30 11:40:25;;;;;;;36.83;5.95;;;;;;;9.84;42.53;101069.88;4917205;28;98977;-80
2022/01/30 11:42:53;;;;;;;37.75;5.35;;;;;;;9.81;41.75;101057.63;4920393;28;96718;-80
2022/01/30 11:45:27;;;;;;;41.78;6.07;;;;;;;9.59;42.70;101065.25;4915902;28;97007;-81
2022/01/30 11:47:58;;;;;;;41.05;6.68;;;;;;;9.91;42.05;101063.53;4920411;28;101702;-80
2022/01/30 11:50:28;;;;;;;39.55;6.05;;;;;;;10.24;41.32;101072.31;4916608;28;101952;-77
2022/01/30 11:52:57;;;;;;;45.70;6.38;;;;;;;9.83;42.01;101068.16;4913611;28;97586;-78
2022/01/30 11:55:49;;;;;;;44.30;6.25;;;;;;;10.05;41.92;101086.88;4919991;28;96875;-80
2022/01/30 11:58:46;;;;;;;39.65;6.93;;;;;;;10.03;40.96;101076.38;4919014;28;98051;-81
2022/01/30 12:01:35;;;;;;;37.30;7.47;;;;;;;9.74;41.86;101077.16;4921647;28;99815;-81
2022/01/30 12:04:07;;;;;;;47.67;7.47;;;;;;;10.15;41.05;101083.09;4917721;28;97805;-80
2022/01/30 12:06:36;;;;;;;42.58;5.70;;;;;;;10.17;40.59;101098.03;4922433;28;97645;-81
2022/01/30 12:09:20;;;;;;;47.15;7.43;;;;;;;9.74;41.31;101086.84;4921051;28;99570;-79
2022/01/30 12:11:56;;;;;;;50.00;7.22;;;;;;;10.68;39.73;101100.91;4921997;28;101369;-79
2022/01/30 12:14:47;;;;;;;44.33;7.30;;;;;;;10.21;40.20;101093.50;4921655;28;97401;-80
2022/01/30 12:17:13;;;;;;;47.28;6.45;;;;;;;10.12;40.40;101101.63;4924256;28;96799;-79
2022/01/30 12:20:05;;;;;;;50.45;6.85;;;;;;;10.81;39.46;101103.19;4925045;28;98265;-80
2022/01/30 12:22:40;;;;;;;39.83;6.13;;;;;;;10.06;40.44;101104.44;4919015;28;98900;-80
2022/01/30 12:25:30;;;;;;;48.72;6.97;;;;;;;10.23;40.66;101102.25;4925280;28;96805;-82
2022/01/30 12:28:02;;;;;;;30.08;5.25;;;;;;;9.63;41.96;101088.91;4923321;28;98551;-81
2022/01/30 12:30:35;;;;;;;52.25;7.10;;;;;;;10.07;41.15;101119.38;4926546;28;98246;-79
2022/01/30 12:33:03;;;;;;;43.55;6.35;;;;;;;10.23;40.87;101097.84;4924742;28;97497;-79
2022/01/30 12:35:58;;;;;;;48.90;8.85;;;;;;;10.59;39.85;101109.09;4925665;28;96813;-81
2022/01/30 12:38:31;;;;;;;48.28;7.28;;;;;;;10.58;40.10;101112.66;4924261;28;96741;-82
2022/01/30 12:41:10;;;;;;;49.85;6.68;;;;;;;10.76;39.83;101116.53;4921564;28;98453;-81
2022/01/30 12:43:40;;;;;;;43.22;6.18;;;;;;;10.40;40.50;101123.75;4923054;28;100644;-81
2022/01/30 12:52:04;;;;;;;38.53;5.95;;;;;;;10.88;39.14;101142.59;4932993;28;96494;-79
2022/01/30 12:54:37;;;;;;;42.58;7.13;;;;;;;11.07;38.69;101127.91;4934581;28;97726;-79
2022/01/30 12:57:07;;;;;;;43.80;6.47;;;;;;;11.49;38.17;101124.75;4930837;28;96722;-79
2022/01/30 12:59:36;;;;;;;42.78;7.07;;;;;;;11.31;38.68;101131.53;4931128;28;96926;-80
2022/01/30 13:02:05;;;;;;;47.22;6.82;;;;;;;11.04;38.59;101124.47;4934582;28;100562;-80
2022/01/30 13:04:34;;;;;;;41.72;6.55;;;;;;;10.51;39.31;101140.16;4936364;28;97805;-78
2022/01/30 13:07:07;;;;;;;47.95;7.10;;;;;;;11.15;38.54;101138.25;4934295;28;97068;-80
2022/01/30 13:09:34;;;;;;;41.50;7.00;;;;;;;10.92;39.28;101130.13;4933933;28;97498;-80
2022/01/30 13:12:13;;;;;;;41.30;7.82;;;;;;;10.44;39.63;101143.88;4935125;28;101075;-80
2022/01/30 13:14:44;;;;;;;44.58;6.60;;;;;;;9.94;40.69;101138.22;4933021;28;99297;-80
2022/01/30 13:19:55;;;;;;;44.78;6.00;;;;;;;10.03;40.69;101133.59;4923786;28;97033;-80
2022/01/30 13:22:34;;;;;;;50.05;6.03;;;;;;;10.21;40.03;101149.84;4926869;28;99541;-80
2022/01/30 13:25:03;;;;;;;41.72;6.70;;;;;;;9.94;40.73;101143.50;4919784;28;99871;-80
2022/01/30 13:27:29;;;;;;;45.50;6.88;;;;;;;10.34;39.78;101145.94;4925428;28;96675;-79
2022/01/30 13:29:56;;;;;;;38.90;5.82;;;;;;;10.28;40.04;101158.44;4920730;28;98229;-78
2022/01/30 13:32:39;;;;;;;55.15;6.40;;;;;;;10.32;40.29;101165.38;4921036;28;99588;-81
2022/01/30 13:35:11;;;;;;;40.03;5.70;;;;;;;10.79;38.95;101159.59;4923415;28;99935;-80
2022/01/30 13:37:43;;;;;;;41.92;6.70;;;;;;;10.44;39.64;101170.31;4931400;28;96432;-82
2022/01/30 13:40:18;;;;;;;43.30;6.85;;;;;;;10.41;39.68;101165.13;4928502;28;97145;-79
2022/01/30 13:42:48;;;;;;;41.13;6.40;;;;;;;10.22;40.08;101175.34;4928855;28;96870;-82
2022/01/30 13:47:51;;;;;;;51.28;5.47;;;;;;;10.44;39.64;101169.44;4893022;28;97358;-76
2022/01/30 13:50:18;;;;;;;50.13;7.28;;;;;;;10.44;39.80;101183.50;4889567;28;96794;-74
2022/01/30 13:52:46;;;;;;;51.88;6.50;;;;;;;10.71;39.25;101184.50;4894324;28;99395;-75
2022/01/30 13:55:13;;;;;;;46.05;6.30;;;;;;;10.57;39.48;101169.06;4896814;28;99143;-74
2022/01/30 13:57:42;;;;;;;48.97;6.03;;;;;;;10.33;40.10;101190.88;4896216;28;96847;-76
2022/01/30 14:00:12;;;;;;;39.63;6.13;;;;;;;11.20;38.36;101205.09;4892912;28;96882;-73
2022/01/30 14:02:53;;;;;;;37.05;5.88;;;;;;;10.80;38.87;101194.81;4895501;28;100285;-75
2022/01/30 14:05:28;;;;;;;43.47;6.82;;;;;;;10.89;38.88;101214.84;4897052;28;98951;-75
2022/01/30 14:07:57;;;;;;;43.58;6.28;;;;;;;10.47;39.64;101206.34;4891871;28;97792;-75
2022/01/30 14:10:29;;;;;;;48.80;7.75;;;;;;;10.65;38.95;101212.00;4891471;28;97204;-76
2022/01/30 14:13:01;;;;;;;49.55;8.35;;;;;;;10.52;39.52;101207.97;4892755;28;99590;-74
2022/01/30 14:15:28;;;;;;;46.15;6.75;;;;;;;10.22;40.02;101204.38;4897634;28;98895;-74